BER523 LYBE-LRTR
Flight info
| Callsign | BER523 |
|---|---|
| Flight time | 0h 36m |
| Altitude | 19000 |
| Route | DONIV N188 MAVIT |
| Aircraft | DH8D/M-SDE2E3FGRY/H |
Departure
| Time | 2026-04-29 19:51 |
|---|---|
| Airport | Belgrade Nikola Tesla Airport (LYBE) |
Arrival
| Time | 2026-04-29 20:27 |
|---|---|
| Airport | Timișoara Traian Vuia International Airport (LRTR) |
| Time | Latitude | Longitude | Altitude | Speed | Heading |
|---|---|---|---|---|---|
| 2026-04-29 19:16 | 44.81799 | 20.29488 | 344 ft | 0 kts | 122° |
| 2026-04-29 19:37 | 44.81798 | 20.29490 | 344 ft | 1 kts | 122° |
| 2026-04-29 19:37 | 44.81797 | 20.29491 | 344 ft | 1 kts | 123° |
| 2026-04-29 19:37 | 44.81818 | 20.29447 | 344 ft | 1 kts | 122° |
| 2026-04-29 19:37 | 44.81828 | 20.29422 | 344 ft | 4 kts | 83° |
| 2026-04-29 19:38 | 44.81827 | 20.29416 | 344 ft | 0 kts | 39° |
| 2026-04-29 19:43 | 44.81849 | 20.29432 | 344 ft | 10 kts | 23° |
| 2026-04-29 19:43 | 44.81913 | 20.29481 | 344 ft | 10 kts | 31° |
| 2026-04-29 19:44 | 44.81958 | 20.29520 | 344 ft | 5 kts | 34° |
| 2026-04-29 19:44 | 44.81985 | 20.29544 | 344 ft | 5 kts | 32° |
| 2026-04-29 19:44 | 44.82016 | 20.29571 | 344 ft | 5 kts | 31° |
| 2026-04-29 19:44 | 44.82048 | 20.29599 | 344 ft | 5 kts | 31° |
| 2026-04-29 19:45 | 44.82077 | 20.29628 | 344 ft | 5 kts | 49° |
| 2026-04-29 19:45 | 44.82079 | 20.29674 | 344 ft | 5 kts | 120° |
| 2026-04-29 19:45 | 44.82059 | 20.29718 | 344 ft | 5 kts | 121° |
| 2026-04-29 19:45 | 44.82040 | 20.29762 | 344 ft | 5 kts | 122° |
| 2026-04-29 19:46 | 44.82019 | 20.29809 | 344 ft | 5 kts | 122° |
| 2026-04-29 19:46 | 44.81989 | 20.29875 | 344 ft | 12 kts | 122° |
| 2026-04-29 19:46 | 44.81926 | 20.30016 | 344 ft | 19 kts | 122° |
| 2026-04-29 19:46 | 44.81858 | 20.30174 | 344 ft | 17 kts | 121° |
| 2026-04-29 19:47 | 44.81799 | 20.30306 | 344 ft | 14 kts | 122° |
| 2026-04-29 19:47 | 44.81750 | 20.30416 | 344 ft | 13 kts | 122° |
| 2026-04-29 19:47 | 44.81703 | 20.30521 | 344 ft | 11 kts | 122° |
| 2026-04-29 19:47 | 44.81654 | 20.30634 | 344 ft | 21 kts | 122° |
| 2026-04-29 19:48 | 44.81568 | 20.30826 | 344 ft | 21 kts | 122° |
| 2026-04-29 19:48 | 44.81529 | 20.30915 | 344 ft | 20 kts | 121° |
| 2026-04-29 19:48 | 44.81442 | 20.31108 | 344 ft | 16 kts | 122° |
| 2026-04-29 19:48 | 44.81376 | 20.31261 | 344 ft | 17 kts | 121° |
| 2026-04-29 19:49 | 44.81319 | 20.31390 | 344 ft | 15 kts | 122° |
| 2026-04-29 19:49 | 44.81268 | 20.31505 | 344 ft | 13 kts | 122° |
| 2026-04-29 19:49 | 44.81219 | 20.31613 | 344 ft | 16 kts | 122° |
| 2026-04-29 19:49 | 44.81128 | 20.31821 | 344 ft | 30 kts | 121° |
| 2026-04-29 19:50 | 44.81013 | 20.32083 | 344 ft | 21 kts | 123° |
| 2026-04-29 19:50 | 44.81012 | 20.32218 | 344 ft | 14 kts | 70° |
| 2026-04-29 19:50 | 44.81066 | 20.32199 | 344 ft | 14 kts | 303° |
| 2026-04-29 19:50 | 44.81178 | 20.31945 | 344 ft | 51 kts | 296° |
| 2026-04-29 19:51 | 44.81522 | 20.31196 | 345 ft | 127 kts | 301° |
| 2026-04-29 19:51 | 44.82023 | 20.30085 | 574 ft | 146 kts | 300° |
| 2026-04-29 19:51 | 44.82533 | 20.28919 | 1285 ft | 138 kts | 301° |
| 2026-04-29 19:51 | 44.82867 | 20.27533 | 1558 ft | 165 kts | 270° |
| 2026-04-29 19:52 | 44.82348 | 20.26129 | 2095 ft | 173 kts | 226° |
| 2026-04-29 19:52 | 44.81528 | 20.25056 | 2560 ft | 181 kts | 225° |
| 2026-04-29 19:52 | 44.80700 | 20.23958 | 2973 ft | 189 kts | 225° |
| 2026-04-29 19:53 | 44.78640 | 20.21161 | 4110 ft | 192 kts | 226° |
| 2026-04-29 19:53 | 44.77696 | 20.19853 | 4618 ft | 192 kts | 226° |
| 2026-04-29 19:53 | 44.76753 | 20.18541 | 5134 ft | 193 kts | 226° |
| 2026-04-29 19:53 | 44.75814 | 20.17229 | 5649 ft | 193 kts | 227° |
| 2026-04-29 19:54 | 44.73947 | 20.14606 | 6653 ft | 193 kts | 227° |
| 2026-04-29 19:54 | 44.73013 | 20.13289 | 7147 ft | 193 kts | 227° |
| 2026-04-29 19:54 | 44.72066 | 20.11956 | 7649 ft | 193 kts | 227° |
| 2026-04-29 19:55 | 44.71143 | 20.10660 | 8088 ft | 191 kts | 228° |
| 2026-04-29 19:55 | 44.70184 | 20.09304 | 8504 ft | 195 kts | 229° |
| 2026-04-29 19:55 | 44.69253 | 20.07987 | 9035 ft | 193 kts | 229° |
| 2026-04-29 19:55 | 44.68240 | 20.06805 | 9464 ft | 198 kts | 207° |
| 2026-04-29 19:56 | 44.66872 | 20.06718 | 9784 ft | 209 kts | 159° |
| 2026-04-29 19:56 | 44.65680 | 20.07895 | 10123 ft | 213 kts | 138° |
| 2026-04-29 19:56 | 44.64595 | 20.09319 | 10548 ft | 213 kts | 138° |
| 2026-04-29 19:56 | 44.63506 | 20.10752 | 10931 ft | 216 kts | 139° |
| 2026-04-29 19:57 | 44.62411 | 20.12193 | 11303 ft | 217 kts | 139° |
| 2026-04-29 19:57 | 44.61679 | 20.13155 | 11546 ft | 218 kts | 139° |
| 2026-04-29 19:57 | 44.60189 | 20.15110 | 12085 ft | 222 kts | 140° |
| 2026-04-29 19:57 | 44.59052 | 20.16605 | 12524 ft | 224 kts | 141° |
| 2026-04-29 19:58 | 44.57893 | 20.18117 | 12752 ft | 235 kts | 141° |
| 2026-04-29 19:58 | 44.56699 | 20.19673 | 13091 ft | 240 kts | 141° |
| 2026-04-29 19:58 | 44.55658 | 20.21402 | 13466 ft | 246 kts | 117° |
| 2026-04-29 19:58 | 44.55419 | 20.23742 | 13722 ft | 248 kts | 74° |
| 2026-04-29 19:59 | 44.56157 | 20.25816 | 14002 ft | 242 kts | 47° |
| 2026-04-29 19:59 | 44.57150 | 20.27577 | 14365 ft | 242 kts | 45° |
| 2026-04-29 19:59 | 44.58233 | 20.29418 | 14702 ft | 244 kts | 44° |
| 2026-04-29 19:59 | 44.59336 | 20.31224 | 15034 ft | 246 kts | 44° |
| 2026-04-29 20:00 | 44.60471 | 20.33043 | 15201 ft | 255 kts | 43° |
| 2026-04-29 20:00 | 44.61660 | 20.34913 | 15440 ft | 260 kts | 42° |
| 2026-04-29 20:00 | 44.62865 | 20.36789 | 15762 ft | 262 kts | 41° |
| 2026-04-29 20:00 | 44.64089 | 20.38677 | 16078 ft | 265 kts | 41° |
| 2026-04-29 20:01 | 44.65332 | 20.40592 | 16426 ft | 265 kts | 41° |
| 2026-04-29 20:01 | 44.66576 | 20.42495 | 16758 ft | 272 kts | 40° |
| 2026-04-29 20:01 | 44.67850 | 20.44448 | 17298 ft | 273 kts | 40° |
| 2026-04-29 20:01 | 44.69137 | 20.46417 | 17853 ft | 274 kts | 40° |
| 2026-04-29 20:02 | 44.70427 | 20.48380 | 18290 ft | 279 kts | 40° |
| 2026-04-29 20:02 | 44.71749 | 20.50392 | 18851 ft | 281 kts | 39° |
| 2026-04-29 20:02 | 44.73109 | 20.52450 | 19072 ft | 296 kts | 39° |
| 2026-04-29 20:02 | 44.74041 | 20.53870 | 19183 ft | 305 kts | 40° |
| 2026-04-29 20:03 | 44.76025 | 20.56874 | 19204 ft | 327 kts | 41° |
| 2026-04-29 20:03 | 44.77615 | 20.59294 | 19220 ft | 343 kts | 40° |
| 2026-04-29 20:03 | 44.79247 | 20.61774 | 19212 ft | 357 kts | 41° |
| 2026-04-29 20:03 | 44.80965 | 20.64393 | 19202 ft | 370 kts | 41° |
| 2026-04-29 20:04 | 44.82713 | 20.67068 | 19196 ft | 377 kts | 43° |
| 2026-04-29 20:04 | 44.84484 | 20.69780 | 19177 ft | 382 kts | 43° |
| 2026-04-29 20:04 | 44.86282 | 20.72546 | 19178 ft | 378 kts | 42° |
| 2026-04-29 20:04 | 44.88029 | 20.75214 | 19219 ft | 371 kts | 42° |
| 2026-04-29 20:05 | 44.89766 | 20.77885 | 19180 ft | 371 kts | 42° |
| 2026-04-29 20:05 | 44.91495 | 20.80541 | 19144 ft | 369 kts | 41° |
| 2026-04-29 20:05 | 44.93238 | 20.83209 | 19182 ft | 369 kts | 42° |
| 2026-04-29 20:05 | 44.94965 | 20.85867 | 19179 ft | 367 kts | 42° |
| 2026-04-29 20:06 | 44.96687 | 20.88518 | 19165 ft | 367 kts | 41° |
| 2026-04-29 20:06 | 44.98409 | 20.91171 | 19168 ft | 368 kts | 41° |
| 2026-04-29 20:06 | 45.00122 | 20.93811 | 19212 ft | 370 kts | 41° |
| 2026-04-29 20:06 | 45.01860 | 20.96490 | 19050 ft | 374 kts | 42° |
| 2026-04-29 20:07 | 45.03617 | 20.99198 | 19019 ft | 372 kts | 42° |
| 2026-04-29 20:07 | 45.05351 | 21.01888 | 18934 ft | 377 kts | 41° |
| 2026-04-29 20:07 | 45.07113 | 21.04613 | 19000 ft | 375 kts | 42° |
| 2026-04-29 20:07 | 45.08978 | 21.07161 | 18964 ft | 368 kts | 31° |
| 2026-04-29 20:08 | 45.10923 | 21.09511 | 18912 ft | 375 kts | 40° |
| 2026-04-29 20:08 | 45.12020 | 21.11334 | 19057 ft | 372 kts | 45° |
| 2026-04-29 20:08 | 45.14237 | 21.15079 | 19001 ft | 371 kts | 44° |
| 2026-04-29 20:08 | 45.15916 | 21.17856 | 18952 ft | 373 kts | 43° |
| 2026-04-29 20:09 | 45.17622 | 21.20620 | 18996 ft | 373 kts | 43° |
| 2026-04-29 20:09 | 45.19316 | 21.23344 | 19001 ft | 374 kts | 43° |
| 2026-04-29 20:09 | 45.21048 | 21.26111 | 19007 ft | 372 kts | 42° |
| 2026-04-29 20:09 | 45.22822 | 21.28736 | 18927 ft | 367 kts | 33° |
| 2026-04-29 20:10 | 45.25019 | 21.30298 | 18982 ft | 345 kts | 6° |
| 2026-04-29 20:10 | 45.27371 | 21.30615 | 19021 ft | 336 kts | 353° |
| 2026-04-29 20:10 | 45.29707 | 21.30679 | 18901 ft | 342 kts | 353° |
| 2026-04-29 20:10 | 45.32117 | 21.30713 | 18565 ft | 342 kts | 353° |
| 2026-04-29 20:11 | 45.34482 | 21.30732 | 18189 ft | 337 kts | 353° |
| 2026-04-29 20:11 | 45.36800 | 21.30742 | 17856 ft | 334 kts | 353° |
| 2026-04-29 20:11 | 45.39121 | 21.30746 | 17484 ft | 331 kts | 353° |
| 2026-04-29 20:11 | 45.41402 | 21.30744 | 17126 ft | 330 kts | 353° |
| 2026-04-29 20:12 | 45.43701 | 21.30740 | 16757 ft | 329 kts | 353° |
| 2026-04-29 20:12 | 45.45957 | 21.30734 | 16104 ft | 323 kts | 354° |
| 2026-04-29 20:12 | 45.48167 | 21.30724 | 15348 ft | 318 kts | 354° |
| 2026-04-29 20:12 | 45.50355 | 21.30712 | 14588 ft | 314 kts | 355° |
| 2026-04-29 20:13 | 45.52525 | 21.30701 | 13836 ft | 310 kts | 355° |
| 2026-04-29 20:13 | 45.53959 | 21.30693 | 13398 ft | 304 kts | 356° |
| 2026-04-29 20:13 | 45.56761 | 21.30681 | 12844 ft | 305 kts | 356° |
| 2026-04-29 20:13 | 45.58940 | 21.30932 | 12240 ft | 321 kts | 12° |
| 2026-04-29 20:14 | 45.60834 | 21.32562 | 11977 ft | 329 kts | 40° |
| 2026-04-29 20:14 | 45.62089 | 21.35333 | 11682 ft | 332 kts | 61° |
| 2026-04-29 20:14 | 45.63029 | 21.38310 | 11299 ft | 333 kts | 63° |
| 2026-04-29 20:14 | 45.63954 | 21.41308 | 10913 ft | 327 kts | 63° |
| 2026-04-29 20:15 | 45.64863 | 21.44254 | 10557 ft | 315 kts | 63° |
| 2026-04-29 20:15 | 45.65725 | 21.47081 | 10191 ft | 309 kts | 65° |
| 2026-04-29 20:15 | 45.66041 | 21.50070 | 9876 ft | 306 kts | 94° |
| 2026-04-29 20:15 | 45.65491 | 21.52959 | 9643 ft | 300 kts | 107° |
| 2026-04-29 20:16 | 45.64794 | 21.55761 | 9375 ft | 293 kts | 107° |
| 2026-04-29 20:16 | 45.64119 | 21.58420 | 9122 ft | 285 kts | 108° |
| 2026-04-29 20:16 | 45.63437 | 21.61096 | 8880 ft | 281 kts | 108° |
| 2026-04-29 20:16 | 45.62767 | 21.63720 | 8650 ft | 284 kts | 107° |
| 2026-04-29 20:17 | 45.62085 | 21.66375 | 8406 ft | 294 kts | 109° |
| 2026-04-29 20:17 | 45.61383 | 21.69106 | 8138 ft | 292 kts | 108° |
| 2026-04-29 20:17 | 45.60695 | 21.71794 | 7887 ft | 288 kts | 108° |
| 2026-04-29 20:17 | 45.60023 | 21.74427 | 7629 ft | 271 kts | 108° |
| 2026-04-29 20:18 | 45.59400 | 21.76866 | 7396 ft | 253 kts | 108° |
| 2026-04-29 20:18 | 45.58901 | 21.79080 | 7634 ft | 208 kts | 94° |
| 2026-04-29 20:18 | 45.59191 | 21.80866 | 8281 ft | 170 kts | 44° |
| 2026-04-29 20:18 | 45.60180 | 21.81562 | 8379 ft | 167 kts | 4° |
| 2026-04-29 20:19 | 45.61417 | 21.81674 | 8086 ft | 200 kts | 2° |
| 2026-04-29 20:19 | 45.62957 | 21.81522 | 7604 ft | 242 kts | 346° |
| 2026-04-29 20:19 | 45.64624 | 21.80636 | 7177 ft | 265 kts | 335° |
| 2026-04-29 20:19 | 45.66248 | 21.79379 | 6743 ft | 263 kts | 330° |
| 2026-04-29 20:20 | 45.67752 | 21.78013 | 6342 ft | 249 kts | 327° |
| 2026-04-29 20:20 | 45.69130 | 21.76642 | 5957 ft | 239 kts | 324° |
| 2026-04-29 20:20 | 45.70161 | 21.74850 | 5584 ft | 229 kts | 300° |
| 2026-04-29 20:20 | 45.70802 | 21.72816 | 5238 ft | 220 kts | 296° |
| 2026-04-29 20:21 | 45.71375 | 21.70858 | 4916 ft | 209 kts | 295° |
| 2026-04-29 20:21 | 45.71908 | 21.68963 | 4620 ft | 195 kts | 296° |
| 2026-04-29 20:21 | 45.72404 | 21.67182 | 4366 ft | 197 kts | 296° |
| 2026-04-29 20:21 | 45.72903 | 21.65360 | 4121 ft | 187 kts | 296° |
| 2026-04-29 20:22 | 45.73539 | 21.63980 | 4776 ft | 163 kts | 313° |
| 2026-04-29 20:22 | 45.73974 | 21.62434 | 4730 ft | 181 kts | 283° |
| 2026-04-29 20:22 | 45.74237 | 21.60656 | 4367 ft | 186 kts | 292° |
| 2026-04-29 20:22 | 45.74675 | 21.58912 | 3923 ft | 186 kts | 294° |
| 2026-04-29 20:23 | 45.75091 | 21.57163 | 3545 ft | 183 kts | 294° |
| 2026-04-29 20:23 | 45.75507 | 21.55472 | 3224 ft | 175 kts | 295° |
| 2026-04-29 20:23 | 45.75897 | 21.53905 | 2918 ft | 159 kts | 295° |
| 2026-04-29 20:23 | 45.76235 | 21.52530 | 2766 ft | 138 kts | 297° |
| 2026-04-29 20:24 | 45.76567 | 21.51260 | 2612 ft | 137 kts | 299° |
| 2026-04-29 20:24 | 45.76907 | 21.49968 | 2444 ft | 139 kts | 298° |
| 2026-04-29 20:24 | 45.77245 | 21.48643 | 2259 ft | 142 kts | 298° |
| 2026-04-29 20:24 | 45.77590 | 21.47300 | 2067 ft | 144 kts | 298° |
| 2026-04-29 20:25 | 45.77923 | 21.45967 | 1851 ft | 141 kts | 299° |
| 2026-04-29 20:25 | 45.78245 | 21.44669 | 1634 ft | 135 kts | 298° |
| 2026-04-29 20:25 | 45.78565 | 21.43416 | 1471 ft | 134 kts | 299° |
| 2026-04-29 20:25 | 45.78900 | 21.42137 | 1268 ft | 139 kts | 297° |
| 2026-04-29 20:26 | 45.79204 | 21.40835 | 1119 ft | 138 kts | 295° |
| 2026-04-29 20:26 | 45.79529 | 21.39543 | 926 ft | 138 kts | 296° |
| 2026-04-29 20:26 | 45.79860 | 21.38251 | 718 ft | 135 kts | 295° |
| 2026-04-29 20:26 | 45.80168 | 21.37014 | 544 ft | 129 kts | 293° |
| 2026-04-29 20:27 | 45.80469 | 21.35831 | 376 ft | 124 kts | 294° |
| 2026-04-29 20:27 | 45.80653 | 21.35112 | 343 ft | 96 kts | 288° |
| 2026-04-29 20:27 | 45.80861 | 21.34288 | 347 ft | 50 kts | 287° |
| 2026-04-29 20:27 | 45.80946 | 21.33936 | 348 ft | 21 kts | 287° |
| 2026-04-29 20:28 | 45.81000 | 21.33713 | 348 ft | 22 kts | 284° |
| 2026-04-29 20:28 | 45.80949 | 21.33564 | 348 ft | 18 kts | 194° |
| 2026-04-29 20:28 | 45.80861 | 21.33468 | 348 ft | 15 kts | 266° |
| 2026-04-29 20:28 | 45.80883 | 21.33335 | 348 ft | 12 kts | 290° |
| 2026-04-29 20:29 | 45.80912 | 21.33227 | 348 ft | 10 kts | 289° |
| 2026-04-29 20:29 | 45.80935 | 21.33127 | 348 ft | 14 kts | 292° |
| 2026-04-29 20:29 | 45.80992 | 21.32913 | 348 ft | 24 kts | 290° |
| 2026-04-29 20:29 | 45.81052 | 21.32669 | 345 ft | 24 kts | 289° |
| 2026-04-29 20:30 | 45.81087 | 21.32486 | 345 ft | 8 kts | 251° |
| 2026-04-29 20:30 | 45.81047 | 21.32386 | 345 ft | 4 kts | 251° |
| 2026-04-29 20:30 | 45.81030 | 21.32359 | 345 ft | 2 kts | 179° |
| 2026-04-29 20:30 | 45.81020 | 21.32380 | 345 ft | 2 kts | 74° |
| 2026-04-29 20:31 | 45.81051 | 21.32366 | 345 ft | 5 kts | 335° |
| 2026-04-29 20:31 | 45.81084 | 21.32352 | 345 ft | 4 kts | 344° |
| 2026-04-29 20:31 | 45.81107 | 21.32342 | 345 ft | 2 kts | 344° |
| 2026-04-29 20:31 | 45.81123 | 21.32336 | 345 ft | 0 kts | 343° |